Time;durP1;ratioP1;P1;durP2;ratioP2;P2;SDS_P1;SDS_P2;PMS_P1;PMS_P2;Temp;Humidity;BMP_temperature;BMP_pressure;BME280_temperature;BME280_humidity;BME280_pressure;Samples;Min_cycle;Max_cycle;Signal;HPM_P1;HPM_P2
2021/01/26 00:01:23;;;;;;;4.43;2.00;;;3.00;99.90;;;;;;9937362;29;20399;-94
2021/01/26 00:06:26;;;;;;;4.53;2.80;;;2.70;99.90;;;;;;9936045;29;20511;-94
2021/01/26 00:11:27;;;;;;;;;;;3.10;99.90;;;;;;9936664;29;20055;-94
2021/01/26 00:16:32;;;;;;;4.30;2.00;;;2.40;99.90;;;;;;9920112;29;20366;-94
2021/01/26 00:21:34;;;;;;;5.57;2.72;;;2.30;99.90;;;;;;9921342;29;20440;-94
2021/01/26 00:26:36;;;;;;;7.03;3.33;;;2.10;99.90;;;;;;9905998;29;20063;-93
2021/01/26 00:31:37;;;;;;;5.68;3.42;;;2.50;99.90;;;;;;9935666;29;20464;-94
2021/01/26 00:36:39;;;;;;;5.88;2.90;;;3.50;99.90;;;;;;9920896;29;20062;-94
2021/01/26 00:41:41;;;;;;;7.78;4.32;;;3.40;99.90;;;;;;9934925;29;20075;-94
2021/01/26 00:46:45;;;;;;;;;;;3.10;99.90;;;;;;9922324;29;20560;-94
2021/01/26 00:51:50;;;;;;;7.45;4.53;;;3.30;99.90;;;;;;9956241;29;19932;-93
2021/01/26 00:56:54;;;;;;;11.70;4.68;;;3.40;99.90;;;;;;9958367;29;20061;-95
2021/01/26 01:01:58;;;;;;;12.57;5.53;;;2.90;99.90;;;;;;9943437;29;20464;-94
2021/01/26 01:07:00;;;;;;;12.55;5.32;;;3.20;99.90;;;;;;9972145;29;20501;-94
2021/01/26 01:12:02;;;;;;;22.10;6.25;;;3.00;99.90;;;;;;9942100;29;20051;-93
2021/01/26 01:17:04;;;;;;;19.63;6.15;;;3.30;99.90;;;;;;9956312;29;20054;-93
2021/01/26 01:22:06;;;;;;;16.73;7.43;;;3.20;99.90;;;;;;9944557;29;20059;-94
2021/01/26 01:27:08;;;;;;;16.90;7.82;;;3.50;99.90;;;;;;9934130;29;20066;-94
2021/01/26 01:32:09;;;;;;;23.63;8.20;;;3.80;99.90;;;;;;9933389;29;20150;-94
2021/01/26 01:37:11;;;;;;;15.63;6.57;;;3.40;99.90;;;;;;9904210;29;20062;-95
2021/01/26 01:42:13;;;;;;;21.02;7.32;;;3.90;99.90;;;;;;9903894;29;20106;-94
2021/01/26 01:47:26;;;;;;;;;;;3.10;99.90;;;;;;9919285;29;20065;-94
2021/01/26 01:52:34;;;;;;;14.02;5.20;;;2.90;99.90;;;;;;9933486;29;20024;-94
2021/01/26 01:57:45;;;;;;;18.33;5.53;;;2.70;99.90;;;;;;9918213;29;20521;-94
2021/01/26 02:03:00;;;;;;;21.30;4.90;;;2.90;99.90;;;;;;9951985;29;20478;-95
2021/01/26 02:08:01;;;;;;;16.73;4.25;;;2.70;99.90;;;;;;9955510;29;20061;-95
2021/01/26 02:13:03;;;;;;;18.23;4.40;;;3.00;99.90;;;;;;9939978;29;20059;-94
2021/01/26 02:18:16;;;;;;;13.60;4.00;;;3.20;99.90;;;;;;9925914;29;20156;-94
2021/01/26 02:23:54;;;;;;;15.38;4.10;;;2.80;99.90;;;;;;9985182;29;20145;-94
2021/01/26 02:29:05;;;;;;;11.73;3.10;;;2.80;99.90;;;;;;9979030;29;20058;-94
2021/01/26 02:34:39;;;;;;;14.20;4.20;;;2.80;99.90;;;;;;9916984;29;20055;-94
2021/01/26 02:40:12;;;;;;;15.32;3.38;;;2.80;99.90;;;;;;9947321;29;20065;-94
2021/01/26 02:45:29;;;;;;;11.60;2.83;;;3.10;99.90;;;;;;9946633;29;20062;-94
2021/01/26 02:50:46;;;;;;;12.48;2.90;;;2.70;99.90;;;;;;9917873;29;20055;-94
2021/01/26 02:56:00;;;;;;;13.88;3.72;;;2.70;99.90;;;;;;9946449;29;20059;-94
2021/01/26 15:19:44;;;;;;;12.57;2.92;;;5.50;99.90;;;;;;10058682;24;20509;-92
2021/01/26 15:24:45;;;;;;;8.38;2.42;;;5.30;99.90;;;;;;10014279;29;20089;-93
2021/01/26 15:29:47;;;;;;;;;;;5.20;99.90;;;;;;10029261;29;20148;-93
2021/01/26 15:34:48;;;;;;;5.53;2.58;;;5.10;99.90;;;;;;10044037;29;19924;-93
2021/01/26 15:39:51;;;;;;;4.70;3.10;;;4.90;99.90;;;;;;10018474;29;20466;-93
2021/01/26 15:44:52;;;;;;;6.80;2.20;;;4.90;99.90;;;;;;10035825;29;20061;-93
2021/01/26 15:49:54;;;;;;;9.10;2.10;;;4.70;99.90;;;;;;10027173;29;20058;-93
2021/01/26 15:54:56;;;;;;;6.07;2.03;;;4.70;99.90;;;;;;10012727;29;20117;-92
2021/01/26 15:59:58;;;;;;;5.60;2.42;;;4.60;99.90;;;;;;10011261;29;20482;-93
2021/01/26 16:04:59;;;;;;;13.18;3.25;;;4.60;99.90;;;;;;10026945;29;20097;-93
2021/01/26 16:10:01;;;;;;;15.40;3.72;;;4.50;99.90;;;;;;10059204;29;20110;-92
2021/01/26 16:15:05;;;;;;;;;;;4.30;99.90;;;;;;10005778;29;20177;-94
2021/01/26 16:20:08;;;;;;;5.57;1.58;;;4.20;99.90;;;;;;10034842;29;19955;-92
2021/01/26 16:25:11;;;;;;;4.22;1.52;;;4.10;99.90;;;;;;10041022;29;20113;-92
2021/01/26 16:30:16;;;;;;;6.78;1.65;;;4.20;99.90;;;;;;10015970;29;20060;-92
2021/01/26 16:35:19;;;;;;;9.25;2.53;;;3.90;99.90;;;;;;9996552;29;20058;-92
2021/01/26 16:40:25;;;;;;;4.07;1.90;;;3.60;99.90;;;;;;10021818;29;20137;-92
2021/01/26 16:45:28;;;;;;;3.17;1.40;;;3.40;99.90;;;;;;10026191;29;20526;-92
2021/01/26 16:50:33;;;;;;;2.28;1.33;;;3.30;99.90;;;;;;10009735;29;20053;-92
2021/01/26 16:55:35;;;;;;;7.57;1.63;;;3.10;99.90;;;;;;10040184;29;20093;-92
2021/01/26 17:00:38;;;;;;;3.85;1.80;;;3.10;99.90;;;;;;10009492;29;20153;-92
2021/01/26 17:05:46;;;;;;;8.50;2.72;;;3.00;99.90;;;;;;10010947;29;20062;-92
2021/01/26 17:10:49;;;;;;;2.60;1.40;;;2.80;99.90;;;;;;10024490;29;20076;-93
2021/01/26 17:15:53;;;;;;;3.08;1.50;;;2.70;99.90;;;;;;10024997;29;20140;-93
2021/01/26 17:20:55;;;;;;;5.80;1.55;;;2.80;99.90;;;;;;10009702;29;20096;-93
2021/01/26 17:25:57;;;;;;;6.25;1.60;;;2.70;99.90;;;;;;10010303;29;20061;-92
2021/01/26 17:31:00;;;;;;;5.78;1.67;;;2.50;99.90;;;;;;10007966;29;20145;-93
2021/01/26 17:36:03;;;;;;;7.82;1.83;;;2.40;99.90;;;;;;10023274;29;20054;-93
2021/01/26 17:41:04;;;;;;;4.53;1.48;;;2.20;99.90;;;;;;10008772;29;20149;-93
2021/01/26 17:46:06;;;;;;;7.82;3.47;;;2.10;99.90;;;;;;10031749;29;20066;-93
2021/01/26 17:51:08;;;;;;;;;;;2.00;99.90;;;;;;10033400;29;20181;-92
2021/01/26 17:56:09;;;;;;;5.68;1.73;;;2.00;99.90;;;;;;10049823;29;20392;-93
2021/01/26 18:01:11;;;;;;;9.05;1.88;;;1.90;99.90;;;;;;10000049;29;20399;-93
2021/01/26 18:06:13;;;;;;;;;;;1.80;99.90;;;;;;10009225;29;20091;-93
2021/01/26 18:11:17;;;;;;;7.22;5.25;;;1.80;99.90;;;;;;9993261;29;19925;-93
2021/01/26 18:16:19;;;;;;;7.57;3.10;;;2.00;99.90;;;;;;10007926;29;20140;-93
2021/01/26 18:21:21;;;;;;;10.27;4.68;;;1.90;99.90;;;;;;10007355;29;20086;-93
2021/01/26 18:26:22;;;;;;;;;;;1.90;99.90;;;;;;10008039;29;20140;-93
2021/01/26 18:31:24;;;;;;;16.90;6.88;;;1.70;99.90;;;;;;10022760;29;19924;-93
2021/01/26 18:36:30;;;;;;;5.57;3.47;;;1.50;99.90;;;;;;9999958;29;20068;-93
2021/01/26 18:41:31;;;;;;;5.28;3.80;;;1.40;99.90;;;;;;10045605;29;20125;-93
2021/01/26 18:46:37;;;;;;;6.93;5.95;;;1.40;99.90;;;;;;10045636;29;20061;-93
2021/01/26 18:51:38;;;;;;;4.57;3.78;;;1.30;99.90;;;;;;10044871;29;20060;-93
2021/01/26 18:56:40;;;;;;;10.00;7.32;;;1.20;99.90;;;;;;10029875;29;20106;-93
2021/01/26 19:01:41;;;;;;;;;;;1.20;99.90;;;;;;10045172;29;20481;-92
2021/01/26 19:06:43;;;;;;;5.65;5.00;;;1.20;99.90;;;;;;10004139;29;20801;-93
2021/01/26 19:11:45;;;;;;;9.60;5.97;;;1.20;99.90;;;;;;10006663;29;20413;-93
2021/01/26 19:16:46;;;;;;;14.98;7.20;;;1.30;99.90;;;;;;10013315;29;20068;-94
2021/01/26 19:21:48;;;;;;;;;;;1.30;99.90;;;;;;10028015;29;20061;-93
2021/01/26 19:26:50;;;;;;;35.15;21.42;;;1.40;99.90;;;;;;10014203;29;19924;-93
2021/01/26 19:31:55;;;;;;;23.92;17.17;;;1.70;99.90;;;;;;10051933;29;20140;-92
2021/01/26 19:36:58;;;;;;;18.13;11.30;;;1.70;99.90;;;;;;10023274;29;20073;-93
2021/01/26 19:42:00;;;;;;;17.95;10.75;;;1.70;99.90;;;;;;10012784;29;20058;-93
2021/01/26 19:47:05;;;;;;;13.05;9.05;;;1.80;99.90;;;;;;9998569;29;20066;-93
2021/01/26 19:52:07;;;;;;;14.30;9.30;;;1.90;99.90;;;;;;10013274;29;20069;-93
2021/01/26 19:57:08;;;;;;;;;;;2.00;99.90;;;;;;9998050;29;20517;-93
2021/01/26 20:02:10;;;;;;;15.68;10.23;;;2.10;99.90;;;;;;10012856;29;19930;-93
2021/01/26 20:07:11;;;;;;;17.17;10.88;;;2.20;99.90;;;;;;10028232;29;20498;-94
2021/01/26 20:12:13;;;;;;;;;;;2.10;99.90;;;;;;10035189;29;20085;-94
2021/01/26 20:17:14;;;;;;;17.33;10.50;;;2.50;99.90;;;;;;10020050;29;20015;-94
2021/01/26 20:22:18;;;;;;;15.60;12.02;;;2.50;99.90;;;;;;10035972;29;20427;-93
2021/01/26 20:27:20;;;;;;;16.95;11.70;;;2.40;99.90;;;;;;10017444;29;20058;-93
2021/01/26 20:32:21;;;;;;;16.95;12.25;;;2.30;99.90;;;;;;10026220;29;20050;-92
2021/01/26 20:37:23;;;;;;;17.65;12.52;;;2.30;99.90;;;;;;10026576;29;20062;-94
2021/01/26 20:42:25;;;;;;;20.75;12.70;;;2.30;99.90;;;;;;10026139;29;20058;-93
2021/01/26 20:47:30;;;;;;;;;;;2.20;99.90;;;;;;10026846;29;20148;-93
2021/01/26 20:52:34;;;;;;;23.42;14.38;;;2.20;99.90;;;;;;10025631;29;19981;-93
2021/01/26 20:57:37;;;;;;;;;;;2.30;99.90;;;;;;10010965;29;20064;-93
2021/01/26 21:02:38;;;;;;;22.83;14.05;;;2.10;99.90;;;;;;10009986;29;19924;-93
2021/01/26 21:07:40;;;;;;;;;;;2.20;99.90;;;;;;10031746;29;20084;-93
2021/01/26 21:12:44;;;;;;;15.40;11.85;;;2.10;99.90;;;;;;10017364;29;19924;-93
2021/01/26 21:17:47;;;;;;;17.38;12.02;;;2.30;99.90;;;;;;10033249;29;20077;-93
2021/01/26 21:22:50;;;;;;;21.63;13.23;;;2.10;99.90;;;;;;10031263;29;20065;-93
2021/01/26 21:27:52;;;;;;;19.58;12.10;;;2.10;99.90;;;;;;10017442;29;20053;-93
